sensor_id;sensor_type;location;lat;lon;timestamp;pressure;altitude;pressure_sealevel;temperature;humidity
46023;BME280;31756;47.936;16.224;2023-02-04T00:01:21;98656.41;;;4.86;100.00
46023;BME280;31756;47.936;16.224;2023-02-04T00:03:50;98643.72;;;4.92;100.00
46023;BME280;31756;47.936;16.224;2023-02-04T00:06:16;98642.91;;;5.02;100.00
46023;BME280;31756;47.936;16.224;2023-02-04T00:08:42;98652.22;;;5.05;100.00
46023;BME280;31756;47.936;16.224;2023-02-04T00:11:07;98645.47;;;5.09;100.00
46023;BME280;31756;47.936;16.224;2023-02-04T00:13:32;98648.84;;;5.07;100.00
46023;BME280;31756;47.936;16.224;2023-02-04T00:15:58;98658.19;;;5.13;100.00
46023;BME280;31756;47.936;16.224;2023-02-04T00:18:23;98658.19;;;5.13;100.00
46023;BME280;31756;47.936;16.224;2023-02-04T00:20:49;98652.28;;;5.23;100.00
46023;BME280;31756;47.936;16.224;2023-02-04T00:23:14;98659.91;;;5.31;100.00
46023;BME280;31756;47.936;16.224;2023-02-04T00:25:40;98667.59;;;5.43;100.00
46023;BME280;31756;47.936;16.224;2023-02-04T00:28:05;98637.06;;;5.41;100.00
46023;BME280;31756;47.936;16.224;2023-02-04T00:30:31;98648.09;;;5.51;100.00
46023;BME280;31756;47.936;16.224;2023-02-04T00:32:57;98654.03;;;5.48;100.00
46023;BME280;31756;47.936;16.224;2023-02-04T00:35:23;98644.72;;;5.50;100.00
46023;BME280;31756;47.936;16.224;2023-02-04T00:37:51;98640.47;;;5.45;100.00
46023;BME280;31756;47.936;16.224;2023-02-04T00:40:17;98636.22;;;5.38;100.00
46023;BME280;31756;47.936;16.224;2023-02-04T00:42:42;98637.09;;;5.55;100.00
46023;BME280;31756;47.936;16.224;2023-02-04T00:45:08;98634.56;;;5.55;100.00
46023;BME280;31756;47.936;16.224;2023-02-04T00:47:34;98632.84;;;5.52;100.00
46023;BME280;31756;47.936;16.224;2023-02-04T00:50:00;98616.72;;;5.57;100.00
46023;BME280;31756;47.936;16.224;2023-02-04T00:52:25;98634.53;;;5.57;100.00
46023;BME280;31756;47.936;16.224;2023-02-04T00:54:51;98622.69;;;5.68;100.00
46023;BME280;31756;47.936;16.224;2023-02-04T00:57:17;98641.31;;;5.70;100.00
46023;BME280;31756;47.936;16.224;2023-02-04T00:59:42;98615.88;;;5.32;100.00
46023;BME280;31756;47.936;16.224;2023-02-04T01:02:08;98626.00;;;5.20;100.00
46023;BME280;31756;47.936;16.224;2023-02-04T01:04:37;98594.66;;;5.10;100.00
46023;BME280;31756;47.936;16.224;2023-02-04T01:07:02;98594.66;;;5.10;100.00
46023;BME280;31756;47.936;16.224;2023-02-04T01:09:27;98598.91;;;5.23;100.00
46023;BME280;31756;47.936;16.224;2023-02-04T01:11:53;98598.06;;;5.12;100.00
46023;BME280;31756;47.936;16.224;2023-02-04T01:14:18;98613.25;;;5.01;100.00
46023;BME280;31756;47.936;16.224;2023-02-04T01:16:44;98586.97;;;4.83;100.00
46023;BME280;31756;47.936;16.224;2023-02-04T01:19:10;98640.28;;;4.78;100.00
46023;BME280;31756;47.936;16.224;2023-02-04T01:21:36;98607.19;;;4.60;100.00
46023;BME280;31756;47.936;16.224;2023-02-04T01:24:01;98603.81;;;4.59;100.00
46023;BME280;31756;47.936;16.224;2023-02-04T01:26:27;98589.41;;;4.55;100.00
46023;BME280;31756;47.936;16.224;2023-02-04T01:28:53;98585.16;;;4.54;100.00
46023;BME280;31756;47.936;16.224;2023-02-04T01:31:18;98607.16;;;4.48;100.00
46023;BME280;31756;47.936;16.224;2023-02-04T01:33:43;98580.91;;;4.50;100.00
46023;BME280;31756;47.936;16.224;2023-02-04T01:36:10;98588.56;;;4.53;100.00
46023;BME280;31756;47.936;16.224;2023-02-04T01:38:35;98582.63;;;4.54;100.00
46023;BME280;31756;47.936;16.224;2023-02-04T01:41:01;98570.78;;;4.59;100.00
46023;BME280;31756;47.936;16.224;2023-02-04T01:43:28;98598.69;;;4.55;100.00
46023;BME280;31756;47.936;16.224;2023-02-04T01:45:55;98569.94;;;4.59;100.00
46023;BME280;31756;47.936;16.224;2023-02-04T01:48:21;98565.75;;;4.72;100.00
46023;BME280;31756;47.936;16.224;2023-02-04T01:50:49;98582.72;;;4.77;100.00
46023;BME280;31756;47.936;16.224;2023-02-04T01:53:17;98574.22;;;4.65;100.00
46023;BME280;31756;47.936;16.224;2023-02-04T01:55:43;98555.59;;;4.72;100.00
46023;BME280;31756;47.936;16.224;2023-02-04T01:58:09;98556.47;;;4.81;100.00
46023;BME280;31756;47.936;16.224;2023-02-04T02:00:36;98566.63;;;4.74;100.00
46023;BME280;31756;47.936;16.224;2023-02-04T02:03:03;98554.72;;;4.64;100.00
46023;BME280;31756;47.936;16.224;2023-02-04T02:05:35;98575.94;;;4.75;100.00
46023;BME280;31756;47.936;16.224;2023-02-04T02:08:02;98576.78;;;4.78;100.00
46023;BME280;31756;47.936;16.224;2023-02-04T02:10:29;98580.16;;;4.80;100.00
46023;BME280;31756;47.936;16.224;2023-02-04T02:12:55;98540.41;;;4.75;100.00
46023;BME280;31756;47.936;16.224;2023-02-04T02:15:21;98553.94;;;4.78;100.00
46023;BME280;31756;47.936;16.224;2023-02-04T02:17:48;98580.16;;;4.80;100.00
46023;BME280;31756;47.936;16.224;2023-02-04T02:20:15;98563.25;;;4.79;100.00
46023;BME280;31756;47.936;16.224;2023-02-04T02:22:43;98566.59;;;4.72;100.00
46023;BME280;31756;47.936;16.224;2023-02-04T02:25:13;98555.63;;;4.76;100.00
46023;BME280;31756;47.936;16.224;2023-02-04T02:27:40;98595.44;;;4.86;100.00
46023;BME280;31756;47.936;16.224;2023-02-04T02:30:06;98586.13;;;4.90;100.00
46023;BME280;31756;47.936;16.224;2023-02-04T02:32:33;98593.72;;;4.84;100.00
46023;BME280;31756;47.936;16.224;2023-02-04T02:35:00;98581.91;;;4.95;100.00
46023;BME280;31756;47.936;16.224;2023-02-04T02:37:27;98605.63;;;4.91;100.00
46023;BME280;31756;47.936;16.224;2023-02-04T02:39:52;98603.06;;;4.86;100.00
46023;BME280;31756;47.936;16.224;2023-02-04T02:42:18;98589.50;;;4.86;100.00
46023;BME280;31756;47.936;16.224;2023-02-04T02:44:44;98615.75;;;4.82;100.00
46023;BME280;31756;47.936;16.224;2023-02-04T02:47:12;98628.38;;;4.65;100.00
46023;BME280;31756;47.936;16.224;2023-02-04T02:49:38;98619.84;;;4.49;100.00
46023;BME280;31756;47.936;16.224;2023-02-04T02:52:08;98684.13;;;4.45;100.00
46023;BME280;31756;47.936;16.224;2023-02-04T02:54:37;98613.97;;;4.58;100.00
46023;BME280;31756;47.936;16.224;2023-02-04T02:57:14;98603.78;;;4.49;100.00
46023;BME280;31756;47.936;16.224;2023-02-04T02:59:40;98632.50;;;4.45;100.00
46023;BME280;31756;47.936;16.224;2023-02-04T03:02:06;98631.63;;;4.38;100.00
46023;BME280;31756;47.936;16.224;2023-02-04T03:04:33;98626.59;;;4.47;100.00
46023;BME280;31756;47.936;16.224;2023-02-04T03:07:02;98627.41;;;4.42;100.00
46023;BME280;31756;47.936;16.224;2023-02-04T03:09:28;98637.59;;;4.48;100.00
46023;BME280;31756;47.936;16.224;2023-02-04T03:11:53;98629.97;;;4.48;100.00
46023;BME280;31756;47.936;16.224;2023-02-04T03:14:19;98625.75;;;4.45;100.00
46023;BME280;31756;47.936;16.224;2023-02-04T03:16:46;98621.50;;;4.40;100.00
46023;BME280;31756;47.936;16.224;2023-02-04T03:19:12;98624.81;;;4.34;100.00
46023;BME280;31756;47.936;16.224;2023-02-04T03:21:38;98623.97;;;4.31;100.00
46023;BME280;31756;47.936;16.224;2023-02-04T03:24:04;98640.16;;;4.49;100.00
46023;BME280;31756;47.936;16.224;2023-02-04T03:26:30;98618.13;;;4.44;100.00
46023;BME280;31756;47.936;16.224;2023-02-04T03:28:55;98612.19;;;4.46;100.00
46023;BME280;31756;47.936;16.224;2023-02-04T03:31:22;98630.84;;;4.51;100.00
46023;BME280;31756;47.936;16.224;2023-02-04T03:33:48;98619.88;;;4.60;100.00
46023;BME280;31756;47.936;16.224;2023-02-04T03:36:13;98612.25;;;4.52;100.00
46023;BME280;31756;47.936;16.224;2023-02-04T03:38:39;98619.84;;;4.49;100.00
46023;BME280;31756;47.936;16.224;2023-02-04T03:41:05;98604.56;;;4.42;100.00
46023;BME280;31756;47.936;16.224;2023-02-04T03:43:30;98612.28;;;4.60;100.00
46023;BME280;31756;47.936;16.224;2023-02-04T03:45:56;98634.25;;;4.53;100.00
46023;BME280;31756;47.936;16.224;2023-02-04T03:48:21;98623.03;;;4.15;100.00
46023;BME280;31756;47.936;16.224;2023-02-04T03:50:47;98626.41;;;4.11;100.00
46023;BME280;31756;47.936;16.224;2023-02-04T03:53:13;98630.56;;;4.04;100.00
46023;BME280;31756;47.936;16.224;2023-02-04T03:55:39;98620.53;;;4.20;100.00
46023;BME280;31756;47.936;16.224;2023-02-04T03:58:04;98605.44;;;4.44;100.00
46023;BME280;31756;47.936;16.224;2023-02-04T04:00:30;98605.44;;;4.45;100.00
46023;BME280;31756;47.936;16.224;2023-02-04T04:02:56;98615.63;;;4.54;100.00
46023;BME280;31756;47.936;16.224;2023-02-04T04:05:22;98607.19;;;4.60;100.00
46023;BME280;31756;47.936;16.224;2023-02-04T04:07:47;98619.94;;;4.66;100.00
46023;BME280;31756;47.936;16.224;2023-02-04T04:10:13;98596.22;;;4.69;100.00
46023;BME280;31756;47.936;16.224;2023-02-04T04:12:39;98607.28;;;4.83;100.00
46023;BME280;31756;47.936;16.224;2023-02-04T04:15:04;98619.13;;;4.81;100.00
46023;BME280;31756;47.936;16.224;2023-02-04T04:17:30;98623.34;;;4.80;100.00
46023;BME280;31756;47.936;16.224;2023-02-04T04:19:55;98631.84;;;4.82;100.00
46023;BME280;31756;47.936;16.224;2023-02-04T04:22:21;98627.56;;;4.71;100.00
46023;BME280;31756;47.936;16.224;2023-02-04T04:24:46;98624.19;;;4.73;100.00
46023;BME280;31756;47.936;16.224;2023-02-04T04:27:12;98626.75;;;4.82;100.00
46023;BME280;31756;47.936;16.224;2023-02-04T04:29:37;98606.41;;;4.73;100.00
46023;BME280;31756;47.936;16.224;2023-02-04T04:32:03;98634.25;;;4.55;100.00
46023;BME280;31756;47.936;16.224;2023-02-04T04:34:29;98636.69;;;4.41;100.00
46023;BME280;31756;47.936;16.224;2023-02-04T04:36:55;98678.97;;;4.38;100.00
46023;BME280;31756;47.936;16.224;2023-02-04T04:39:20;98691.66;;;4.33;100.00
46023;BME280;31756;47.936;16.224;2023-02-04T04:41:46;98678.78;;;4.07;100.00
46023;BME280;31756;47.936;16.224;2023-02-04T04:44:12;98686.34;;;3.98;100.00
46023;BME280;31756;47.936;16.224;2023-02-04T04:46:37;98679.66;;;4.11;100.00
46023;BME280;31756;47.936;16.224;2023-02-04T04:49:11;98695.88;;;4.31;100.00
46023;BME280;31756;47.936;16.224;2023-02-04T04:51:36;98751.03;;;4.55;100.00
46023;BME280;31756;47.936;16.224;2023-02-04T04:54:02;98743.41;;;4.55;100.00
46023;BME280;31756;47.936;16.224;2023-02-04T04:56:27;98741.78;;;4.65;100.00
46023;BME280;31756;47.936;16.224;2023-02-04T04:58:53;98753.59;;;4.58;100.00
46023;BME280;31756;47.936;16.224;2023-02-04T05:01:18;98751.13;;;4.72;100.00
46023;BME280;31756;47.936;16.224;2023-02-04T05:03:45;98769.66;;;4.57;100.00
46023;BME280;31756;47.936;16.224;2023-02-04T05:06:11;98794.09;;;4.44;100.00
46023;BME280;31756;47.936;16.224;2023-02-04T05:08:37;98830.47;;;4.40;100.00
46023;BME280;31756;47.936;16.224;2023-02-04T05:11:02;98837.13;;;4.31;100.00
46023;BME280;31756;47.936;16.224;2023-02-04T05:13:28;98842.16;;;4.23;100.00
46023;BME280;31756;47.936;16.224;2023-02-04T05:15:53;98855.56;;;4.13;100.00
46023;BME280;31756;47.936;16.224;2023-02-04T05:18:19;98869.91;;;4.09;100.00
46023;BME280;31756;47.936;16.224;2023-02-04T05:20:45;98842.94;;;4.19;100.00
46023;BME280;31756;47.936;16.224;2023-02-04T05:23:10;98910.53;;;4.11;100.00
46023;BME280;31756;47.936;16.224;2023-02-04T05:25:35;98898.72;;;4.14;100.00
46023;BME280;31756;47.936;16.224;2023-02-04T05:28:01;98961.78;;;3.87;100.00
46023;BME280;31756;47.936;16.224;2023-02-04T05:30:26;98976.06;;;3.20;100.00
46023;BME280;31756;47.936;16.224;2023-02-04T05:32:52;98985.69;;;2.90;100.00
46023;BME280;31756;47.936;16.224;2023-02-04T05:35:17;99006.84;;;2.94;100.00
46023;BME280;31756;47.936;16.224;2023-02-04T05:37:43;99018.69;;;2.95;100.00
46023;BME280;31756;47.936;16.224;2023-02-04T05:40:08;99013.75;;;3.02;100.00
46023;BME280;31756;47.936;16.224;2023-02-04T05:42:34;99029.00;;;3.07;100.00
46023;BME280;31756;47.936;16.224;2023-02-04T05:45:00;99029.91;;;3.10;100.00
46023;BME280;31756;47.936;16.224;2023-02-04T05:47:25;99021.41;;;3.07;100.00
46023;BME280;31756;47.936;16.224;2023-02-04T05:49:53;99050.25;;;3.13;100.00
46023;BME280;31756;47.936;16.224;2023-02-04T05:52:19;99083.16;;;3.12;100.00
46023;BME280;31756;47.936;16.224;2023-02-04T05:54:45;99056.09;;;3.11;100.00
46023;BME280;31756;47.936;16.224;2023-02-04T05:57:10;99067.88;;;3.07;100.00
46023;BME280;31756;47.936;16.224;2023-02-04T05:59:36;99050.97;;;3.06;100.00
46023;BME280;31756;47.936;16.224;2023-02-04T06:02:01;99063.69;;;3.09;100.00
46023;BME280;31756;47.936;16.224;2023-02-04T06:04:27;99061.25;;;3.14;100.00
46023;BME280;31756;47.936;16.224;2023-02-04T06:06:52;99073.88;;;3.12;100.00
46023;BME280;31756;47.936;16.224;2023-02-04T06:09:17;99095.84;;;3.13;100.00
46023;BME280;31756;47.936;16.224;2023-02-04T06:11:43;99092.59;;;3.20;100.00
46023;BME280;31756;47.936;16.224;2023-02-04T06:14:08;99062.09;;;3.16;100.00
46023;BME280;31756;47.936;16.224;2023-02-04T06:16:35;99138.88;;;3.12;100.00
46023;BME280;31756;47.936;16.224;2023-02-04T06:19:00;99105.09;;;3.11;100.00
46023;BME280;31756;47.936;16.224;2023-02-04T06:21:26;99126.84;;;3.02;100.00
46023;BME280;31756;47.936;16.224;2023-02-04T06:23:51;99107.53;;;3.07;100.00
46023;BME280;31756;47.936;16.224;2023-02-04T06:26:16;99097.44;;;3.08;100.00
46023;BME280;31756;47.936;16.224;2023-02-04T06:28:42;99132.91;;;3.08;100.00
46023;BME280;31756;47.936;16.224;2023-02-04T06:31:07;99119.34;;;3.06;100.00
46023;BME280;31756;47.936;16.224;2023-02-04T06:33:34;99109.13;;;3.00;100.00
46023;BME280;31756;47.936;16.224;2023-02-04T06:36:00;99149.63;;;3.02;100.00
46023;BME280;31756;47.936;16.224;2023-02-04T06:38:25;99138.59;;;2.97;100.00
46023;BME280;31756;47.936;16.224;2023-02-04T06:40:51;99138.66;;;3.00;100.00
46023;BME280;31756;47.936;16.224;2023-02-04T06:43:18;99158.84;;;2.97;100.00
46023;BME280;31756;47.936;16.224;2023-02-04T06:45:43;99182.41;;;2.93;100.00
46023;BME280;31756;47.936;16.224;2023-02-04T06:48:08;99170.72;;;2.99;100.00
46023;BME280;31756;47.936;16.224;2023-02-04T06:50:34;99184.25;;;3.01;100.00
46023;BME280;31756;47.936;16.224;2023-02-04T06:52:59;99175.72;;;2.98;100.00
46023;BME280;31756;47.936;16.224;2023-02-04T06:55:25;99216.16;;;2.92;100.00
46023;BME280;31756;47.936;16.224;2023-02-04T06:57:50;99207.69;;;2.91;100.00
46023;BME280;31756;47.936;16.224;2023-02-04T07:00:16;99168.09;;;2.95;100.00
46023;BME280;31756;47.936;16.224;2023-02-04T07:02:41;99208.47;;;2.89;100.00
46023;BME280;31756;47.936;16.224;2023-02-04T07:05:07;99197.50;;;2.90;100.00
46023;BME280;31756;47.936;16.224;2023-02-04T07:07:32;99209.31;;;2.88;100.00
46023;BME280;31756;47.936;16.224;2023-02-04T07:09:58;99203.44;;;2.90;100.00
46023;BME280;31756;47.936;16.224;2023-02-04T07:12:24;99205.97;;;2.90;100.00
46023;BME280;31756;47.936;16.224;2023-02-04T07:14:49;99254.88;;;2.88;100.00
46023;BME280;31756;47.936;16.224;2023-02-04T07:17:15;99243.81;;;2.83;100.00
46023;BME280;31756;47.936;16.224;2023-02-04T07:19:41;99246.28;;;2.80;100.00
46023;BME280;31756;47.936;16.224;2023-02-04T07:22:06;99245.44;;;2.81;100.00
46023;BME280;31756;47.936;16.224;2023-02-04T07:24:32;99272.41;;;2.80;100.00
46023;BME280;31756;47.936;16.224;2023-02-04T07:26:57;99307.03;;;2.80;100.00
46023;BME280;31756;47.936;16.224;2023-02-04T07:29:23;99289.97;;;2.71;100.00
46023;BME280;31756;47.936;16.224;2023-02-04T07:31:49;99289.22;;;2.76;100.00
46023;BME280;31756;47.936;16.224;2023-02-04T07:34:16;99349.56;;;2.58;100.00
46023;BME280;31756;47.936;16.224;2023-02-04T07:36:42;99322.59;;;2.59;100.00
46023;BME280;31756;47.936;16.224;2023-02-04T07:39:07;99321.72;;;2.58;100.00
46023;BME280;31756;47.936;16.224;2023-02-04T07:41:34;99340.72;;;2.43;100.00
46023;BME280;31756;47.936;16.224;2023-02-04T07:43:59;99340.63;;;2.38;100.00
46023;BME280;31756;47.936;16.224;2023-02-04T07:46:25;99337.16;;;2.35;100.00
46023;BME280;31756;47.936;16.224;2023-02-04T07:48:50;99338.47;;;2.19;100.00
46023;BME280;31756;47.936;16.224;2023-02-04T07:51:16;99354.50;;;2.21;100.00
46023;BME280;31756;47.936;16.224;2023-02-04T07:53:41;99386.81;;;2.31;100.00
46023;BME280;31756;47.936;16.224;2023-02-04T07:56:07;99371.69;;;2.33;100.00
46023;BME280;31756;47.936;16.224;2023-02-04T07:58:32;99394.72;;;2.10;100.00
46023;BME280;31756;47.936;16.224;2023-02-04T08:00:57;99406.78;;;2.20;100.00
46023;BME280;31756;47.936;16.224;2023-02-04T08:03:23;99418.72;;;2.24;100.00
46023;BME280;31756;47.936;16.224;2023-02-04T08:05:48;99414.31;;;1.88;100.00
46023;BME280;31756;47.936;16.224;2023-02-04T08:08:14;99440.31;;;1.83;100.00
46023;BME280;31756;47.936;16.224;2023-02-04T08:10:40;99466.44;;;1.84;100.00
46023;BME280;31756;47.936;16.224;2023-02-04T08:13:05;99439.63;;;1.59;100.00
46023;BME280;31756;47.936;16.224;2023-02-04T08:15:31;99462.50;;;1.64;100.00
46023;BME280;31756;47.936;16.224;2023-02-04T08:17:56;99469.88;;;1.58;100.00
46023;BME280;31756;47.936;16.224;2023-02-04T08:20:22;99487.19;;;1.46;100.00
46023;BME280;31756;47.936;16.224;2023-02-04T08:22:47;99502.13;;;1.38;100.00
46023;BME280;31756;47.936;16.224;2023-02-04T08:25:13;99502.19;;;1.40;100.00
46023;BME280;31756;47.936;16.224;2023-02-04T08:27:38;99506.03;;;1.55;100.00
46023;BME280;31756;47.936;16.224;2023-02-04T08:30:04;99528.06;;;1.59;100.00
46023;BME280;31756;47.936;16.224;2023-02-04T08:32:29;99535.13;;;1.69;100.00
46023;BME280;31756;47.936;16.224;2023-02-04T08:34:56;99567.97;;;1.69;100.00
46023;BME280;31756;47.936;16.224;2023-02-04T08:37:22;99552.94;;;1.74;100.00
46023;BME280;31756;47.936;16.224;2023-02-04T08:39:48;99586.69;;;1.76;100.00
46023;BME280;31756;47.936;16.224;2023-02-04T08:42:13;99594.28;;;1.76;100.00
46023;BME280;31756;47.936;16.224;2023-02-04T08:44:39;99623.56;;;1.69;100.00
46023;BME280;31756;47.936;16.224;2023-02-04T08:47:05;99621.94;;;1.71;100.00
46023;BME280;31756;47.936;16.224;2023-02-04T08:49:30;99631.25;;;1.72;100.00
46023;BME280;31756;47.936;16.224;2023-02-04T08:51:56;99636.25;;;1.71;100.00
46023;BME280;31756;47.936;16.224;2023-02-04T08:54:21;99647.22;;;1.71;100.00
46023;BME280;31756;47.936;16.224;2023-02-04T08:56:47;99670.06;;;1.74;100.00
46023;BME280;31756;47.936;16.224;2023-02-04T08:59:12;99661.75;;;1.78;100.00
46023;BME280;31756;47.936;16.224;2023-02-04T09:01:37;99695.53;;;1.80;100.00
46023;BME280;31756;47.936;16.224;2023-02-04T09:04:03;99693.09;;;1.83;100.00
46023;BME280;31756;47.936;16.224;2023-02-04T09:06:28;99721.59;;;1.78;100.00
46023;BME280;31756;47.936;16.224;2023-02-04T09:08:54;99716.63;;;1.81;100.00
46023;BME280;31756;47.936;16.224;2023-02-04T09:11:19;99744.13;;;1.72;100.00
46023;BME280;31756;47.936;16.224;2023-02-04T09:13:45;99764.44;;;1.75;100.00
46023;BME280;31756;47.936;16.224;2023-02-04T09:16:10;99752.06;;;1.82;100.00
46023;BME280;31756;47.936;16.224;2023-02-04T09:18:36;99735.19;;;1.81;100.00
46023;BME280;31756;47.936;16.224;2023-02-04T09:21:01;99743.88;;;1.90;100.00
46023;BME280;31756;47.936;16.224;2023-02-04T09:23:27;99743.47;;;1.77;100.00
46023;BME280;31756;47.936;16.224;2023-02-04T09:25:52;99745.16;;;1.77;100.00
46023;BME280;31756;47.936;16.224;2023-02-04T09:28:18;99758.97;;;1.63;100.00
46023;BME280;31756;47.936;16.224;2023-02-04T09:30:44;99748.94;;;1.66;100.00
46023;BME280;31756;47.936;16.224;2023-02-04T09:33:10;99758.25;;;1.67;100.00
46023;BME280;31756;47.936;16.224;2023-02-04T09:35:36;99766.16;;;1.76;100.00
46023;BME280;31756;47.936;16.224;2023-02-04T09:38:02;99755.56;;;1.86;100.00
46023;BME280;31756;47.936;16.224;2023-02-04T09:40:28;99763.59;;;2.00;100.00
46023;BME280;31756;47.936;16.224;2023-02-04T09:42:54;99803.31;;;2.02;100.00
46023;BME280;31756;47.936;16.224;2023-02-04T09:45:24;99794.91;;;2.03;100.00
46023;BME280;31756;47.936;16.224;2023-02-04T09:47:52;99793.34;;;2.07;100.00
46023;BME280;31756;47.936;16.224;2023-02-04T09:50:19;99799.00;;;2.00;100.00
46023;BME280;31756;47.936;16.224;2023-02-04T09:52:45;99792.22;;;2.24;100.00
46023;BME280;31756;47.936;16.224;2023-02-04T09:55:13;99798.41;;;2.07;100.00
46023;BME280;31756;47.936;16.224;2023-02-04T09:57:39;99795.00;;;2.06;100.00
46023;BME280;31756;47.936;16.224;2023-02-04T10:00:19;99824.25;;;1.98;100.00
46023;BME280;31756;47.936;16.224;2023-02-04T10:02:44;99824.28;;;2.00;100.00
46023;BME280;31756;47.936;16.224;2023-02-04T10:05:14;99831.44;;;2.11;100.00
46023;BME280;31756;47.936;16.224;2023-02-04T10:07:40;99838.50;;;2.21;100.00
46023;BME280;31756;47.936;16.224;2023-02-04T10:10:05;99826.00;;;2.26;100.00
46023;BME280;31756;47.936;16.224;2023-02-04T10:12:31;99834.72;;;2.09;100.00
46023;BME280;31756;47.936;16.224;2023-02-04T10:14:57;99834.31;;;2.22;100.00
46023;BME280;31756;47.936;16.224;2023-02-04T10:17:24;99837.94;;;2.55;100.00
46023;BME280;31756;47.936;16.224;2023-02-04T10:19:50;99834.50;;;2.80;100.00
46023;BME280;31756;47.936;16.224;2023-02-04T10:22:16;99827.56;;;3.01;100.00
46023;BME280;31756;47.936;16.224;2023-02-04T10:24:43;99835.34;;;2.79;99.83
46023;BME280;31756;47.936;16.224;2023-02-04T10:27:10;99833.63;;;3.06;99.01
46023;BME280;31756;47.936;16.224;2023-02-04T10:29:36;99832.16;;;3.13;99.90
46023;BME280;31756;47.936;16.224;2023-02-04T10:32:02;99855.16;;;2.92;100.00
46023;BME280;31756;47.936;16.224;2023-02-04T10:34:34;99871.38;;;2.72;100.00
46023;BME280;31756;47.936;16.224;2023-02-04T10:37:17;99849.78;;;2.56;100.00
46023;BME280;31756;47.936;16.224;2023-02-04T10:39:44;99855.66;;;2.55;100.00
46023;BME280;31756;47.936;16.224;2023-02-04T10:42:25;99857.75;;;2.67;100.00
46023;BME280;31756;47.936;16.224;2023-02-04T10:44:51;99856.03;;;2.67;100.00
46023;BME280;31756;47.936;16.224;2023-02-04T10:47:18;99856.25;;;2.73;100.00
46023;BME280;31756;47.936;16.224;2023-02-04T10:49:58;99867.03;;;2.68;100.00
46023;BME280;31756;47.936;16.224;2023-02-04T10:52:43;99858.84;;;2.75;100.00
46023;BME280;31756;47.936;16.224;2023-02-04T10:55:12;99863.56;;;2.64;100.00
46023;BME280;31756;47.936;16.224;2023-02-04T10:57:39;99867.66;;;2.36;100.00
46023;BME280;31756;47.936;16.224;2023-02-04T11:00:06;99860.78;;;2.32;100.00
46023;BME280;31756;47.936;16.224;2023-02-04T11:05:05;99891.78;;;2.26;100.00
46023;BME280;31756;47.936;16.224;2023-02-04T11:07:34;99893.72;;;2.08;100.00
46023;BME280;31756;47.936;16.224;2023-02-04T11:09:59;99913.75;;;1.79;100.00
46023;BME280;31756;47.936;16.224;2023-02-04T11:12:39;99906.19;;;1.35;100.00
46023;BME280;31756;47.936;16.224;2023-02-04T11:15:05;99913.47;;;1.27;100.00
46023;BME280;31756;47.936;16.224;2023-02-04T11:17:33;99925.94;;;1.45;100.00
46023;BME280;31756;47.936;16.224;2023-02-04T11:19:59;99931.75;;;1.43;100.00
46023;BME280;31756;47.936;16.224;2023-02-04T11:22:42;99905.63;;;1.64;100.00
46023;BME280;31756;47.936;16.224;2023-02-04T11:27:52;99922.63;;;1.68;100.00
46023;BME280;31756;47.936;16.224;2023-02-04T11:30:21;99917.56;;;1.68;100.00
46023;BME280;31756;47.936;16.224;2023-02-04T11:33:00;99925.13;;;1.91;100.00
46023;BME280;31756;47.936;16.224;2023-02-04T11:35:27;99924.34;;;2.17;100.00
46023;BME280;31756;47.936;16.224;2023-02-04T11:37:53;99914.06;;;2.36;100.00
46023;BME280;31756;47.936;16.224;2023-02-04T11:40:20;99920.16;;;2.66;100.00
46023;BME280;31756;47.936;16.224;2023-02-04T11:42:46;99925.22;;;2.66;100.00
46023;BME280;31756;47.936;16.224;2023-02-04T11:45:19;99910.59;;;2.58;100.00
46023;BME280;31756;47.936;16.224;2023-02-04T11:47:45;99916.28;;;2.27;100.00
46023;BME280;31756;47.936;16.224;2023-02-04T11:50:21;99933.19;;;2.28;100.00
46023;BME280;31756;47.936;16.224;2023-02-04T11:52:49;99944.72;;;2.20;100.00
46023;BME280;31756;47.936;16.224;2023-02-04T11:55:17;99923.19;;;2.07;100.00
46023;BME280;31756;47.936;16.224;2023-02-04T11:57:43;99956.19;;;1.88;100.00
46023;BME280;31756;47.936;16.224;2023-02-04T12:00:16;99955.06;;;1.80;100.00
46023;BME280;31756;47.936;16.224;2023-02-04T12:02:49;99958.03;;;1.92;100.00
46023;BME280;31756;47.936;16.224;2023-02-04T12:05:16;99940.72;;;2.03;100.00
46023;BME280;31756;47.936;16.224;2023-02-04T12:07:42;99955.00;;;2.24;100.00
46023;BME280;31756;47.936;16.224;2023-02-04T12:12:43;99958.16;;;2.43;100.00
46023;BME280;31756;47.936;16.224;2023-02-04T12:15:13;99959.88;;;2.44;99.88
46023;BME280;31756;47.936;16.224;2023-02-04T12:17:38;99966.44;;;2.39;96.30
46023;BME280;31756;47.936;16.224;2023-02-04T12:20:04;99972.97;;;2.56;97.43
46023;BME280;31756;47.936;16.224;2023-02-04T12:22:29;99973.28;;;2.65;93.42
46023;BME280;31756;47.936;16.224;2023-02-04T12:24:55;99965.75;;;2.66;90.38
46023;BME280;31756;47.936;16.224;2023-02-04T12:27:20;99969.38;;;2.74;90.64
46023;BME280;31756;47.936;16.224;2023-02-04T12:29:48;99972.25;;;2.85;90.95
46023;BME280;31756;47.936;16.224;2023-02-04T12:32:13;99973.94;;;2.85;92.33
46023;BME280;31756;47.936;16.224;2023-02-04T12:34:39;99951.56;;;2.71;90.17
46023;BME280;31756;47.936;16.224;2023-02-04T12:37:05;99972.91;;;2.54;87.10
46023;BME280;31756;47.936;16.224;2023-02-04T12:39:30;99980.06;;;2.42;87.07
46023;BME280;31756;47.936;16.224;2023-02-04T12:41:56;99987.34;;;2.33;85.46
46023;BME280;31756;47.936;16.224;2023-02-04T12:44:21;99977.44;;;2.39;84.87
46023;BME280;31756;47.936;16.224;2023-02-04T12:46:47;99970.25;;;2.51;87.56
46023;BME280;31756;47.936;16.224;2023-02-04T12:49:12;99964.81;;;2.64;85.58
46023;BME280;31756;47.936;16.224;2023-02-04T12:51:38;99958.16;;;2.66;82.85
46023;BME280;31756;47.936;16.224;2023-02-04T12:54:03;99967.81;;;2.78;82.83